createdAt,value
2019-03-06T00:02:02.594Z,100.00
2019-03-06T00:04:34.723Z,100.00
2019-03-06T00:07:08.565Z,100.00
2019-03-06T00:09:40.298Z,100.00
2019-03-06T00:12:11.873Z,96.85
2019-03-06T00:14:48.529Z,96.80
2019-03-06T00:17:19.715Z,88.80
2019-03-06T00:19:51.482Z,91.68
2019-03-06T00:22:23.175Z,88.12
2019-03-06T00:24:54.949Z,97.69
2019-03-06T00:27:26.784Z,97.95
2019-03-06T00:29:58.665Z,93.35
2019-03-06T00:32:30.454Z,92.40
2019-03-06T00:35:05.026Z,94.32
2019-03-06T00:37:36.745Z,94.37
2019-03-06T00:40:15.927Z,94.37
2019-03-06T00:42:49.796Z,95.95
2019-03-06T00:45:21.499Z,95.24
2019-03-06T00:47:53.084Z,95.49
2019-03-06T00:50:24.704Z,96.04
2019-03-06T00:52:56.321Z,97.81
2019-03-06T00:55:27.906Z,99.97
2019-03-06T00:57:59.655Z,100.00
2019-03-06T01:00:31.298Z,100.00
2019-03-06T01:03:03.124Z,100.00
2019-03-06T01:05:34.805Z,100.00
2019-03-06T01:08:06.605Z,100.00
2019-03-06T01:10:38.346Z,100.00
2019-03-06T01:13:10.005Z,100.00
2019-03-06T01:15:41.663Z,100.00
2019-03-06T01:18:13.404Z,100.00
2019-03-06T01:20:45.138Z,100.00
2019-03-06T01:23:19.599Z,100.00
2019-03-06T01:25:51.239Z,100.00
2019-03-06T01:28:22.873Z,100.00
2019-03-06T01:30:54.559Z,100.00
2019-03-06T01:33:47.797Z,100.00
2019-03-06T01:36:38.564Z,100.00
2019-03-06T01:39:19.475Z,100.00
2019-03-06T01:42:01.795Z,100.00
2019-03-06T01:44:38.214Z,100.00
2019-03-06T01:47:10.051Z,100.00
2019-03-06T01:49:41.613Z,100.00
2019-03-06T01:52:14.465Z,100.00
2019-03-06T01:54:46.256Z,100.00
2019-03-06T01:57:18.136Z,100.00
2019-03-06T01:59:49.822Z,100.00
2019-03-06T02:02:22.043Z,100.00
2019-03-06T02:04:53.725Z,100.00
2019-03-06T02:07:25.485Z,100.00
2019-03-06T02:09:57.012Z,100.00
2019-03-06T02:12:28.855Z,100.00
2019-03-06T02:15:00.505Z,100.00
2019-03-06T02:17:33.045Z,100.00
2019-03-06T02:20:05.422Z,100.00
2019-03-06T02:22:37.146Z,100.00
2019-03-06T02:25:09.175Z,100.00
2019-03-06T02:27:41.066Z,100.00
2019-03-06T02:30:15.765Z,100.00
2019-03-06T02:32:47.580Z,100.00
2019-03-06T02:35:19.456Z,100.00
2019-03-06T02:37:51.216Z,100.00
2019-03-06T02:40:22.882Z,100.00
2019-03-06T02:42:54.622Z,100.00
2019-03-06T02:45:26.305Z,100.00
2019-03-06T02:47:58.062Z,100.00
2019-03-06T02:50:32.093Z,100.00
2019-03-06T02:53:03.792Z,100.00
2019-03-06T02:55:38.791Z,100.00
2019-03-06T02:58:19.940Z,100.00
2019-03-06T03:01:10.079Z,100.00
2019-03-06T03:04:00.455Z,100.00
2019-03-06T03:06:36.318Z,100.00
2019-03-06T03:09:20.934Z,100.00
2019-03-06T03:11:52.766Z,100.00
2019-03-06T03:14:24.575Z,100.00
2019-03-06T03:16:57.462Z,100.00
2019-03-06T03:19:29.270Z,100.00
2019-03-06T03:22:01.009Z,100.00
2019-03-06T03:24:32.827Z,100.00
2019-03-06T03:27:04.626Z,100.00
2019-03-06T03:29:36.516Z,100.00
2019-03-06T03:32:08.167Z,100.00
2019-03-06T03:34:39.786Z,100.00
2019-03-06T03:37:12.536Z,100.00
2019-03-06T03:39:44.213Z,100.00
2019-03-06T03:42:18.686Z,100.00
2019-03-06T03:44:50.387Z,100.00
2019-03-06T03:47:22.204Z,100.00
2019-03-06T03:49:53.903Z,100.00
2019-03-06T03:52:25.603Z,100.00
2019-03-06T03:54:57.307Z,100.00
2019-03-06T03:57:29.244Z,100.00
2019-03-06T04:00:01.175Z,100.00
2019-03-06T04:02:33.135Z,100.00
2019-03-06T04:05:06.470Z,100.00
2019-03-06T04:07:38.171Z,100.00
2019-03-06T04:10:10.803Z,100.00
2019-03-06T04:12:42.773Z,100.00
2019-03-06T04:15:14.716Z,100.00
2019-03-06T04:17:46.425Z,100.00
2019-03-06T04:20:19.785Z,100.00
2019-03-06T04:22:51.517Z,100.00
2019-03-06T04:25:24.956Z,100.00
2019-03-06T04:27:56.613Z,100.00
2019-03-06T04:30:29.535Z,100.00
2019-03-06T04:33:01.452Z,100.00
2019-03-06T04:35:33.353Z,100.00
2019-03-06T04:38:05.132Z,100.00
2019-03-06T04:40:36.764Z,100.00
2019-03-06T04:43:08.385Z,100.00
2019-03-06T04:45:40.114Z,100.00
2019-03-06T04:48:11.673Z,100.00
2019-03-06T04:50:43.371Z,100.00
2019-03-06T04:53:14.955Z,100.00
2019-03-06T04:55:46.691Z,100.00
2019-03-06T04:58:18.340Z,100.00
2019-03-06T05:00:50.513Z,100.00
2019-03-06T05:03:24.509Z,100.00
2019-03-06T05:05:56.161Z,100.00
2019-03-06T05:08:27.761Z,100.00
2019-03-06T05:10:59.532Z,100.00
2019-03-06T05:13:31.143Z,100.00
2019-03-06T05:16:02.713Z,100.00
2019-03-06T05:18:59.281Z,100.00
2019-03-06T05:21:31.181Z,100.00
2019-03-06T05:24:02.781Z,100.00
2019-03-06T05:26:34.499Z,100.00
2019-03-06T05:29:06.202Z,100.00
2019-03-06T05:31:37.871Z,100.00
2019-03-06T05:34:09.759Z,100.00
2019-03-06T05:36:50.054Z,100.00
2019-03-06T05:39:21.771Z,100.00
2019-03-06T05:41:53.504Z,100.00
2019-03-06T05:44:25.127Z,100.00
2019-03-06T05:46:58.345Z,100.00
2019-03-06T05:49:30.169Z,100.00
2019-03-06T05:52:01.861Z,100.00
2019-03-06T05:54:33.577Z,100.00
2019-03-06T05:57:05.529Z,100.00
2019-03-06T05:59:37.221Z,100.00
2019-03-06T06:02:08.929Z,100.00
2019-03-06T06:04:40.600Z,100.00
2019-03-06T06:07:12.521Z,100.00
2019-03-06T06:09:44.289Z,100.00
2019-03-06T06:12:15.879Z,100.00
2019-03-06T06:14:47.562Z,100.00
2019-03-06T06:17:19.329Z,100.00
2019-03-06T06:19:50.970Z,100.00
2019-03-06T06:22:50.382Z,100.00
2019-03-06T06:25:22.056Z,100.00
2019-03-06T06:27:53.741Z,100.00
2019-03-06T06:30:25.299Z,100.00
2019-03-06T06:32:56.946Z,100.00
2019-03-06T06:35:28.799Z,100.00
2019-03-06T06:38:00.522Z,100.00
2019-03-06T06:40:32.358Z,100.00
2019-03-06T06:43:04.205Z,100.00
2019-03-06T06:45:37.479Z,100.00
2019-03-06T06:48:20.212Z,100.00
2019-03-06T06:51:01.755Z,100.00
2019-03-06T06:53:38.012Z,100.00
2019-03-06T06:56:55.324Z,100.00
2019-03-06T06:59:38.462Z,100.00
2019-03-06T07:02:48.377Z,100.00
2019-03-06T07:05:50.857Z,100.00
2019-03-06T07:08:54.804Z,100.00
2019-03-06T07:11:43.199Z,100.00
2019-03-06T07:14:32.616Z,100.00
2019-03-06T07:17:26.279Z,100.00
2019-03-06T07:20:07.068Z,100.00
2019-03-06T07:22:57.637Z,100.00
2019-03-06T07:25:44.530Z,100.00
2019-03-06T07:28:33.560Z,100.00
2019-03-06T07:31:22.628Z,100.00
2019-03-06T07:34:11.911Z,100.00
2019-03-06T07:36:53.240Z,100.00
2019-03-06T07:39:26.801Z,100.00
2019-03-06T07:42:17.194Z,100.00
2019-03-06T07:45:41.523Z,100.00
2019-03-06T07:48:32.014Z,100.00
2019-03-06T07:51:10.433Z,100.00
2019-03-06T07:54:11.980Z,100.00
2019-03-06T07:56:55.259Z,100.00
2019-03-06T07:59:27.120Z,100.00
2019-03-06T08:02:02.227Z,100.00
2019-03-06T08:04:34.032Z,100.00
2019-03-06T08:07:16.317Z,100.00
2019-03-06T08:09:48.050Z,91.48
2019-03-06T08:12:47.442Z,96.42
2019-03-06T08:15:56.217Z,89.47
2019-03-06T08:18:41.543Z,89.93
2019-03-06T08:21:44.029Z,87.96
2019-03-06T08:24:40.662Z,86.93
2019-03-06T08:27:12.445Z,84.16
2019-03-06T08:29:44.211Z,81.42
2019-03-06T08:32:23.104Z,80.58
2019-03-06T08:34:54.646Z,80.66
2019-03-06T08:37:26.377Z,77.35
2019-03-06T08:39:59.955Z,76.12
2019-03-06T08:42:32.661Z,75.91
2019-03-06T08:45:07.198Z,74.21
2019-03-06T08:47:51.716Z,72.45
2019-03-06T08:50:42.334Z,71.45
2019-03-06T08:53:32.806Z,70.84
2019-03-06T08:56:19.904Z,70.59
2019-03-06T08:59:09.006Z,70.87
2019-03-06T09:02:15.240Z,69.71
2019-03-06T09:04:58.163Z,68.04
2019-03-06T09:07:49.653Z,68.82
2019-03-06T09:11:02.708Z,66.71
2019-03-06T09:13:49.745Z,67.20
2019-03-06T09:16:46.115Z,64.29
2019-03-06T09:19:30.437Z,63.70
2019-03-06T09:22:19.347Z,63.65
2019-03-06T09:25:15.385Z,61.46
2019-03-06T09:27:53.014Z,63.41
2019-03-06T09:30:47.506Z,58.92
2019-03-06T09:33:46.861Z,58.42
2019-03-06T09:36:37.273Z,54.74
2019-03-06T09:39:29.684Z,57.82
2019-03-06T09:42:22.994Z,56.66
2019-03-06T09:45:22.885Z,53.67
2019-03-06T09:48:08.096Z,47.84
2019-03-06T09:50:58.952Z,50.58
2019-03-06T09:53:50.355Z,54.57
2019-03-06T09:56:31.155Z,46.41
2019-03-06T09:59:34.317Z,44.60
2019-03-06T10:02:23.215Z,52.89
2019-03-06T10:05:13.686Z,46.18
2019-03-06T10:08:02.524Z,44.55
2019-03-06T10:10:50.461Z,45.69
2019-03-06T10:13:42.066Z,48.64
2019-03-06T10:16:19.436Z,50.07
2019-03-06T10:19:08.186Z,49.83
2019-03-06T10:21:40.204Z,47.87
2019-03-06T10:24:11.910Z,47.44
2019-03-06T10:26:43.696Z,49.50
2019-03-06T10:29:15.416Z,49.41
2019-03-06T10:31:47.304Z,47.61
2019-03-06T10:34:19.109Z,43.79
2019-03-06T10:36:50.865Z,42.30
2019-03-06T10:39:22.676Z,40.68
2019-03-06T10:41:54.473Z,39.42
2019-03-06T10:44:29.567Z,40.62
2019-03-06T10:46:59.597Z,38.32
2019-03-06T10:49:31.766Z,38.48
2019-03-06T10:52:03.805Z,38.00
2019-03-06T10:54:44.275Z,37.34
2019-03-06T10:57:11.791Z,36.74
2019-03-06T10:59:43.527Z,38.05
2019-03-06T11:02:17.236Z,37.96
2019-03-06T11:04:53.429Z,38.20
2019-03-06T11:07:25.178Z,39.51
2019-03-06T11:09:57.111Z,39.18
2019-03-06T11:12:29.291Z,39.39
2019-03-06T11:15:02.452Z,38.39
2019-03-06T11:17:34.316Z,40.22
2019-03-06T11:20:07.233Z,38.90
2019-03-06T11:22:40.073Z,41.08
2019-03-06T11:25:12.656Z,40.43
2019-03-06T11:27:44.576Z,39.84
2019-03-06T11:30:24.546Z,41.09
2019-03-06T11:32:56.216Z,41.33
2019-03-06T11:35:28.766Z,42.56
2019-03-06T11:38:00.459Z,42.75
2019-03-06T11:40:32.705Z,42.42
2019-03-06T11:43:04.885Z,42.47
2019-03-06T11:45:39.704Z,42.42
2019-03-06T11:48:11.873Z,44.20
2019-03-06T11:50:43.967Z,42.74
2019-03-06T11:53:15.698Z,42.70
2019-03-06T11:55:47.526Z,43.34
2019-03-06T11:58:20.256Z,41.93
2019-03-06T12:00:52.256Z,42.80
2019-03-06T12:03:26.186Z,42.41
2019-03-06T12:06:00.666Z,41.31
2019-03-06T12:08:32.523Z,40.38
2019-03-06T12:11:04.295Z,40.50
2019-03-06T12:13:36.193Z,42.06
2019-03-06T12:16:07.939Z,41.43
2019-03-06T12:18:41.008Z,40.32
2019-03-06T12:21:12.914Z,41.09
2019-03-06T12:23:44.726Z,40.76
2019-03-06T12:26:16.722Z,40.76
2019-03-06T12:28:48.954Z,39.59
2019-03-06T12:31:21.371Z,39.57
2019-03-06T12:33:53.116Z,40.08
2019-03-06T12:36:24.765Z,40.02
2019-03-06T12:38:56.445Z,40.29
2019-03-06T12:41:28.392Z,40.69
2019-03-06T12:44:00.084Z,40.50
2019-03-06T12:46:32.550Z,42.11
2019-03-06T12:49:06.485Z,42.08
2019-03-06T12:51:39.215Z,42.74
2019-03-06T12:54:11.492Z,43.61
2019-03-06T12:56:44.042Z,43.86
2019-03-06T12:59:16.063Z,44.50
2019-03-06T13:01:47.831Z,44.81
2019-03-06T13:04:20.748Z,46.10
2019-03-06T13:06:52.598Z,47.20
2019-03-06T13:09:24.381Z,48.32
2019-03-06T13:11:55.978Z,49.03
2019-03-06T13:14:30.341Z,49.02
2019-03-06T13:17:01.525Z,46.60
2019-03-06T13:19:33.397Z,47.48
2019-03-06T13:22:11.058Z,46.99
2019-03-06T13:24:43.500Z,47.46
2019-03-06T13:27:15.206Z,48.51
2019-03-06T13:29:47.176Z,46.35
2019-03-06T13:32:20.186Z,46.80
2019-03-06T13:34:56.075Z,47.00
2019-03-06T13:37:29.397Z,46.31
2019-03-06T13:40:03.283Z,45.89
2019-03-06T13:42:35.001Z,47.28
2019-03-06T13:45:09.859Z,54.33
2019-03-06T13:47:42.277Z,66.58
2019-03-06T13:50:14.629Z,83.41
2019-03-06T13:53:25.584Z,90.27
2019-03-06T13:55:58.707Z,90.27
2019-03-06T13:58:30.581Z,100.00
2019-03-06T14:01:02.481Z,100.00
2019-03-06T14:03:34.378Z,100.00
2019-03-06T14:06:06.770Z,100.00
2019-03-06T14:08:38.550Z,100.00
2019-03-06T14:11:10.897Z,100.00
2019-03-06T14:13:42.518Z,100.00
2019-03-06T14:16:14.389Z,100.00
2019-03-06T14:18:46.130Z,100.00
2019-03-06T14:21:17.853Z,100.00
2019-03-06T14:23:49.823Z,100.00
2019-03-06T14:26:21.594Z,100.00
2019-03-06T14:28:53.385Z,100.00
2019-03-06T14:31:25.295Z,100.00
2019-03-06T14:33:57.116Z,100.00
2019-03-06T14:36:29.393Z,100.00
2019-03-06T14:39:01.316Z,100.00
2019-03-06T14:41:34.873Z,100.00
2019-03-06T14:44:06.812Z,100.00
2019-03-06T14:46:39.768Z,100.00
2019-03-06T14:49:11.574Z,100.00
2019-03-06T14:51:43.173Z,100.00
2019-03-06T14:54:14.974Z,100.00
2019-03-06T14:56:46.653Z,100.00
2019-03-06T14:59:18.446Z,100.00
2019-03-06T15:01:50.183Z,100.00
2019-03-06T15:04:21.981Z,100.00
2019-03-06T15:06:53.818Z,99.55
2019-03-06T15:09:27.643Z,100.00
2019-03-06T15:11:59.501Z,100.00
2019-03-06T15:14:36.620Z,100.00
2019-03-06T15:17:06.548Z,99.87
2019-03-06T15:19:39.282Z,97.22
2019-03-06T15:22:11.328Z,97.22
2019-03-06T15:24:43.030Z,97.87
2019-03-06T15:27:15.148Z,96.53
2019-03-06T15:29:46.955Z,96.67
2019-03-06T15:32:18.715Z,96.86
2019-03-06T15:34:50.496Z,96.20
2019-03-06T15:37:22.196Z,97.20
2019-03-06T15:39:53.793Z,97.77
2019-03-06T15:42:26.816Z,97.27
2019-03-06T15:44:58.534Z,96.50
2019-03-06T15:47:33.633Z,97.43
2019-03-06T15:50:04.094Z,98.43
2019-03-06T15:52:36.004Z,98.44
2019-03-06T15:55:08.861Z,99.37
2019-03-06T15:57:40.750Z,99.34
2019-03-06T16:00:19.357Z,100.00
2019-03-06T16:02:51.242Z,99.74
2019-03-06T16:05:23.070Z,100.00
2019-03-06T16:07:56.051Z,99.44
2019-03-06T16:10:28.491Z,99.46
2019-03-06T16:13:01.639Z,100.00
2019-03-06T16:15:33.509Z,100.00
2019-03-06T16:18:06.452Z,100.00
2019-03-06T16:20:39.035Z,100.00
2019-03-06T16:23:10.858Z,100.00
2019-03-06T16:25:42.671Z,100.00
2019-03-06T16:28:14.620Z,100.00
2019-03-06T16:30:49.322Z,100.00
2019-03-06T16:33:21.494Z,100.00
2019-03-06T16:35:53.490Z,100.00
2019-03-06T16:38:25.403Z,100.00
2019-03-06T16:40:57.074Z,100.00
2019-03-06T16:43:28.832Z,100.00
2019-03-06T16:46:02.123Z,100.00
2019-03-06T16:48:34.002Z,100.00
2019-03-06T16:51:05.856Z,100.00
2019-03-06T16:53:37.708Z,100.00
2019-03-06T16:56:09.478Z,100.00
2019-03-06T16:58:41.268Z,100.00
2019-03-06T17:01:12.876Z,100.00
2019-03-06T17:03:44.684Z,100.00
2019-03-06T17:06:16.561Z,100.00
2019-03-06T17:08:48.484Z,100.00
2019-03-06T17:11:20.530Z,100.00
2019-03-06T17:13:52.254Z,100.00
2019-03-06T17:16:24.499Z,100.00
2019-03-06T17:18:57.394Z,100.00
2019-03-06T17:21:29.156Z,100.00
2019-03-06T17:24:01.215Z,100.00
2019-03-06T17:26:32.864Z,100.00
2019-03-06T17:29:15.503Z,100.00
2019-03-06T17:31:47.386Z,100.00
2019-03-06T17:34:21.877Z,100.00
2019-03-06T17:36:53.682Z,100.00
2019-03-06T17:39:25.308Z,100.00
2019-03-06T17:41:57.067Z,99.74
2019-03-06T17:44:29.797Z,100.00
2019-03-06T17:47:01.568Z,99.24
2019-03-06T17:49:34.954Z,99.12
2019-03-06T17:52:07.451Z,99.29
2019-03-06T17:54:39.646Z,98.75
2019-03-06T17:57:11.787Z,98.86
2019-03-06T17:59:43.599Z,99.37
2019-03-06T18:02:15.357Z,99.71
2019-03-06T18:04:47.020Z,100.00
2019-03-06T18:07:18.699Z,100.00
2019-03-06T18:09:52.254Z,100.00
2019-03-06T18:12:24.045Z,100.00
2019-03-06T18:14:57.107Z,100.00
2019-03-06T18:17:31.365Z,100.00
2019-03-06T18:20:03.180Z,100.00
2019-03-06T18:22:35.031Z,100.00
2019-03-06T18:25:10.153Z,100.00
2019-03-06T18:27:41.862Z,100.00
2019-03-06T18:30:15.663Z,99.76
2019-03-06T18:32:47.572Z,98.79
2019-03-06T18:35:19.204Z,98.68
2019-03-06T18:37:50.960Z,98.83
2019-03-06T18:40:22.798Z,98.61
2019-03-06T18:42:55.054Z,98.41
2019-03-06T18:45:27.114Z,98.30
2019-03-06T18:47:58.791Z,97.96
2019-03-06T18:50:30.541Z,97.80
2019-03-06T18:53:02.337Z,97.56
2019-03-06T18:55:34.211Z,97.55
2019-03-06T18:58:06.465Z,98.93
2019-03-06T19:00:41.313Z,99.24
2019-03-06T19:03:13.117Z,99.86
2019-03-06T19:05:44.559Z,98.20
2019-03-06T19:08:16.311Z,99.35
2019-03-06T19:10:47.801Z,98.40
2019-03-06T19:13:19.543Z,99.71
2019-03-06T19:15:51.156Z,99.54
2019-03-06T19:18:23.093Z,99.99
2019-03-06T19:20:54.896Z,100.00
2019-03-06T19:23:29.569Z,100.00
2019-03-06T19:26:01.331Z,100.00
2019-03-06T19:28:33.008Z,100.00
2019-03-06T19:31:04.646Z,100.00
2019-03-06T19:33:36.566Z,100.00
2019-03-06T19:36:08.293Z,100.00
2019-03-06T19:38:40.051Z,100.00
2019-03-06T19:41:14.016Z,100.00
2019-03-06T19:43:45.538Z,100.00
2019-03-06T19:46:17.490Z,100.00
2019-03-06T19:48:49.129Z,100.00
2019-03-06T19:51:20.841Z,100.00
2019-03-06T19:53:53.113Z,100.00
2019-03-06T19:56:24.863Z,100.00
2019-03-06T19:58:57.093Z,100.00
2019-03-06T20:01:28.896Z,100.00
2019-03-06T20:04:00.415Z,100.00
2019-03-06T20:06:35.167Z,100.00
2019-03-06T20:09:27.509Z,100.00
2019-03-06T20:11:59.389Z,100.00
2019-03-06T20:14:31.009Z,100.00
2019-03-06T20:17:02.620Z,100.00
2019-03-06T20:19:34.399Z,99.97
2019-03-06T20:22:06.087Z,99.46
2019-03-06T20:24:37.928Z,98.87
2019-03-06T20:27:09.777Z,98.40
2019-03-06T20:29:43.038Z,98.19
2019-03-06T20:32:15.033Z,99.00
2019-03-06T20:34:48.289Z,99.79
2019-03-06T20:37:22.810Z,100.00
2019-03-06T20:39:54.672Z,99.92
2019-03-06T20:42:26.396Z,100.00
2019-03-06T20:44:58.258Z,100.00
2019-03-06T20:47:30.014Z,100.00
2019-03-06T20:50:01.683Z,100.00
2019-03-06T20:52:34.871Z,100.00
2019-03-06T20:55:07.149Z,100.00
2019-03-06T20:57:40.107Z,100.00
2019-03-06T21:00:15.080Z,100.00
2019-03-06T21:02:48.365Z,100.00
2019-03-06T21:05:21.762Z,100.00
2019-03-06T21:07:54.568Z,100.00
2019-03-06T21:10:29.280Z,99.42
2019-03-06T21:13:01.077Z,99.40
2019-03-06T21:15:32.967Z,99.63
2019-03-06T21:18:04.679Z,98.46
2019-03-06T21:20:36.364Z,97.86
2019-03-06T21:23:11.182Z,97.53
2019-03-06T21:25:42.973Z,96.99
2019-03-06T21:28:14.953Z,96.50
2019-03-06T21:30:46.909Z,96.82
2019-03-06T21:33:18.824Z,96.15
2019-03-06T21:35:50.546Z,96.32
2019-03-06T21:38:22.521Z,95.95
2019-03-06T21:40:54.304Z,96.44
2019-03-06T21:43:26.037Z,95.77
2019-03-06T21:45:57.819Z,95.53
2019-03-06T21:48:29.728Z,95.35
2019-03-06T21:51:01.584Z,94.93
2019-03-06T21:53:33.523Z,94.66
2019-03-06T21:56:05.449Z,94.10
2019-03-06T21:58:37.301Z,93.75
2019-03-06T22:01:08.970Z,93.93
2019-03-06T22:03:40.866Z,94.05
2019-03-06T22:06:12.464Z,93.88
2019-03-06T22:08:44.124Z,93.75
2019-03-06T22:11:15.893Z,92.82
2019-03-06T22:13:47.592Z,92.75
2019-03-06T22:16:19.265Z,92.65
2019-03-06T22:18:50.797Z,92.71
2019-03-06T22:21:22.365Z,92.17
2019-03-06T22:23:57.888Z,92.23
2019-03-06T22:26:28.603Z,91.70
2019-03-06T22:29:00.407Z,91.63
2019-03-06T22:31:34.763Z,92.00
2019-03-06T22:34:06.702Z,91.88
2019-03-06T22:36:41.023Z,91.45
2019-03-06T22:39:13.355Z,91.42
2019-03-06T22:41:47.725Z,91.38
2019-03-06T22:44:19.378Z,91.42
2019-03-06T22:46:51.000Z,90.92
2019-03-06T22:49:22.818Z,90.90
2019-03-06T22:51:54.518Z,90.77
2019-03-06T22:54:26.129Z,89.54
2019-03-06T22:56:58.889Z,90.54
2019-03-06T22:59:30.924Z,90.60
2019-03-06T23:02:02.931Z,91.74
2019-03-06T23:04:36.688Z,92.10
2019-03-06T23:07:08.989Z,91.90
2019-03-06T23:09:42.408Z,91.58
2019-03-06T23:12:14.259Z,91.70
2019-03-06T23:14:46.112Z,92.17
2019-03-06T23:17:17.838Z,91.81
2019-03-06T23:19:49.504Z,92.53
2019-03-06T23:22:22.198Z,93.01
2019-03-06T23:24:54.181Z,93.39
2019-03-06T23:27:26.024Z,94.13
2019-03-06T23:29:57.812Z,94.24
2019-03-06T23:32:33.520Z,94.43
2019-03-06T23:35:06.615Z,93.92
2019-03-06T23:37:38.172Z,93.68
2019-03-06T23:40:10.202Z,93.58
2019-03-06T23:42:41.983Z,93.60
2019-03-06T23:45:14.984Z,94.34
2019-03-06T23:47:47.002Z,93.92
2019-03-06T23:50:18.713Z,93.46
2019-03-06T23:53:06.950Z,93.91
2019-03-06T23:55:38.712Z,92.60
2019-03-06T23:58:10.514Z,93.53
